Fenwick Island, Delaware
Current Conditions -  °F | °C
As of 7:53 AM on Sunday 21 Dec 2014 (Local Time) from KOXB Reporting Station
Haze Haze  
Wind Chill: 32°   Ceiling: 7000
Heat Index: 32°   Visibility: 6mi
Dew Point: 27°   Wind: 3mph
Humidity: 82%   Direction: 330°NNW
Pressure: 30.34"   Gusts: NA
Location:  38.46°N, 75.05°W
Report Text: KOXB 211253Z AUTO 33003KT 6SM HZ OVC070 00/M03 A3034 RMK AO2 SLP272 T00001028 TSNO
Loading
Personal Weather Stations






























Interactive Weather Map New forecast layout! Learn more

10-Day Weather Forecast

Advertisements
Track Severe Weather on mobile